Shelby — WCV6157 — position and weather

sailwx.info

Track history (hours):
 
Tides and Currents Weather Stations Pressure Air Temp Water Temp Dewpoint Dewpoint Depression Visibility Wind Speed Wind Dir Waves Ship Positions

Shelby

Owner: WEEKS MARINE, INC., CRANFORD, NJ. More information available from US FCC via Universal Licensing System and Coast Guard Vessel Documentation Center.

Last reported at 2017-Oct-18 06:00 UTC. Time now 2017-Oct-18 06:04 UTC.
Position N 40°41' W 074°05'.

Length 22 m; draft 3.1 m.

Type: Tug. MMSI: 366902344.

Date/timePositionNaut miles runAvg speedWind from/ knotsBaromVisibWave heightAir tempDewpointWater temp
2017-Oct-18 06:00N 40°41' W 074°05'0 0.0
2017-Oct-18 05:30N 40°41' W 074°05'0 0.0
2017-Oct-18 05:00N 40°41' W 074°05'0 0.0
2017-Oct-18 04:30N 40°41' W 074°05'0 0.0
2017-Oct-18 04:00N 40°41' W 074°05'0 0.0
2017-Oct-18 03:30N 40°41' W 074°05'0 0.0
2017-Oct-18 03:00N 40°41' W 074°05'0 0.0
2017-Oct-18 02:30N 40°41' W 074°05'0 0.1
2017-Oct-18 02:00N 40°40' W 074°05'0 0.2
2017-Oct-18 01:30N 40°41' W 074°05'0 0.2
2017-Oct-18 01:01N 40°41' W 074°05'1 2.2
2017-Oct-18 00:31N 40°41' W 074°03'3 5.2
2017-Oct-18 00:00N 40°43' W 074°02'3 5.6
2017-Oct-17 23:30N 40°46' W 074°01'1 2.0
2017-Oct-17 23:00N 40°46' W 073°60'2 4.7
2017-Oct-17 22:30N 40°49' W 073°59'0 0.2
2017-Oct-17 22:00N 40°49' W 073°59'0 0.2
2017-Oct-17 21:30N 40°49' W 073°59'2 4.0
2017-Oct-17 21:00N 40°47' W 073°60'1 1.1
2017-Oct-17 20:30N 40°46' W 074°00'0 0.0
2017-Oct-17 20:00N 40°46' W 074°00'0 0.1
2017-Oct-17 19:30N 40°46' W 074°00'1 1.2
2017-Oct-17 19:00N 40°46' W 074°00'4 8.0
2017-Oct-17 18:30N 40°42' W 074°02'2 5.0
2017-Oct-17 18:00N 40°41' W 074°05'0 0.0
2017-Oct-17 17:30N 40°41' W 074°05'0 0.0
2017-Oct-17 17:00N 40°41' W 074°05'0 0.0
2017-Oct-17 16:30N 40°41' W 074°05'0 0.0
2017-Oct-17 16:00N 40°41' W 074°05'0 0.0
2017-Oct-17 15:30N 40°41' W 074°05'0 0.0
2017-Oct-17 15:00N 40°41' W 074°05'0 0.0
2017-Oct-17 14:30N 40°41' W 074°05'0 0.0
2017-Oct-17 14:00N 40°41' W 074°05'0 0.0
2017-Oct-17 13:30N 40°41' W 074°05'0 0.0
2017-Oct-17 13:00N 40°41' W 074°05'0 0.0
2017-Oct-17 12:30N 40°41' W 074°05'0 0.5
2017-Oct-17 12:01N 40°40' W 074°04'4 7.0
2017-Oct-17 11:30N 40°43' W 074°01'2 3.1
2017-Oct-17 11:00N 40°45' W 074°01'0 0.0
2017-Oct-17 10:30N 40°45' W 074°01'0 0.1
2017-Oct-17 10:00N 40°45' W 074°01'0 0.1
2017-Oct-17 09:30N 40°45' W 074°01'5 9.0
2017-Oct-17 09:00N 40°41' W 074°03'1 1.9
2017-Oct-17 08:30N 40°41' W 074°05'0 0.0
2017-Oct-17 08:00N 40°41' W 074°05'0 0.0
2017-Oct-17 07:30N 40°41' W 074°05'0 0.0
2017-Oct-17 07:00N 40°41' W 074°05'0 0.0
2017-Oct-17 06:30N 40°41' W 074°05'0 0.0
2017-Oct-17 06:00N 40°41' W 074°05'0 0.0
2017-Oct-17 05:30N 40°41' W 074°05'0 0.0
2017-Oct-17 05:00N 40°41' W 074°05'0 0.0
2017-Oct-17 04:30N 40°41' W 074°05'0 0.0
2017-Oct-17 04:00N 40°41' W 074°05'0 0.0
2017-Oct-17 03:30N 40°41' W 074°05'0 0.0
2017-Oct-17 03:00N 40°41' W 074°05'0 0.0
2017-Oct-17 02:30N 40°41' W 074°05'0 0.0
2017-Oct-17 02:00N 40°41' W 074°05'0 0.0
2017-Oct-17 01:30N 40°41' W 074°05'0 0.0
2017-Oct-17 01:00N 40°41' W 074°05'0 0.0
2017-Oct-17 00:30N 40°41' W 074°05'0 0.0
2017-Oct-17 00:00N 40°41' W 074°05'0 0.0
2017-Oct-16 23:30N 40°41' W 074°05'0 0.0
2017-Oct-16 23:00N 40°41' W 074°05'0 0.3
2017-Oct-16 22:31N 40°40' W 074°04'0 0.2
2017-Oct-16 22:00N 40°41' W 074°04'0 0.0
2017-Oct-16 21:30N 40°41' W 074°04'0 0.9
2017-Oct-16 21:01N 40°40' W 074°04'2 3.8
2017-Oct-16 20:30N 40°38' W 074°03'3 6.7
2017-Oct-16 20:00N 40°35' W 074°02'3 6.6
2017-Oct-16 19:30N 40°32' W 074°02'43 6.4
2017-Oct-16 12:45N 39°48' W 074°03'2 7.0
2017-Oct-16 12:30N 39°47' W 074°03'4 7.0
2017-Oct-16 12:00N 39°44' W 074°05'4 7.4
2017-Oct-16 11:30N 39°40' W 074°07'4 7.7
2017-Oct-16 11:00N 39°37' W 074°09'61 6.8
2017-Oct-16 02:01N 38°52' W 075°03'0 8.1
2017-Oct-16 01:59N 38°53' W 075°03'3 6.7
2017-Oct-16 01:30N 38°55' W 075°06'5 9.0
2017-Oct-16 01:00N 38°59' W 075°08'4 8.5
2017-Oct-16 00:30N 39°03' W 075°10'4 7.9
2017-Oct-16 00:00N 39°07' W 075°13'4 7.5
2017-Oct-15 23:30N 39°10' W 075°15'3 6.8
2017-Oct-15 23:00N 39°13' W 075°18'3 6.2
2017-Oct-15 22:30N 39°15' W 075°20'3 6.2
2017-Oct-15 22:00N 39°18' W 075°23'3 6.3
2017-Oct-15 21:30N 39°20' W 075°25'3 6.5
2017-Oct-15 21:00N 39°22' W 075°28'4 7.0
2017-Oct-15 20:30N 39°25' W 075°31'4 7.2
2017-Oct-15 20:00N 39°28' W 075°34'4 8.1
2017-Oct-15 19:30N 39°32' W 075°33'4 8.6
2017-Oct-15 19:00N 39°36' W 075°34'4 8.1
2017-Oct-15 18:30N 39°40' W 075°32'4 8.7
2017-Oct-15 18:01N 39°44' W 075°30'4 8.8
2017-Oct-15 17:30N 39°47' W 075°27'3 6.4
2017-Oct-15 17:01N 39°49' W 075°23'4 8.4
2017-Oct-15 16:30N 39°51' W 075°19'4 7.8
2017-Oct-15 16:01N 39°52' W 075°14'3 6.6
2017-Oct-15 15:30N 39°53' W 075°10'3 5.2
2017-Oct-15 15:01N 39°55' W 075°08'2 2.2
2017-Oct-15 14:01N 39°57' W 075°08'0 0.0
2017-Oct-15 13:31N 39°57' W 075°08'0 0.0
2017-Oct-15 13:01N 39°57' W 075°08'0 0.0
2017-Oct-15 12:31N 39°57' W 075°08'0 0.0
2017-Oct-15 12:01N 39°57' W 075°08'0 0.0
2017-Oct-15 11:31N 39°57' W 075°08'1 2.0
2017-Oct-15 11:00N 39°56' W 075°08'4 8.0
2017-Oct-15 10:31N 39°53' W 075°11'5 9.5
2017-Oct-15 10:01N 39°51' W 075°16'5 9.1
2017-Oct-15 09:31N 39°50' W 075°22'5 9.0
2017-Oct-15 09:00N 39°47' W 075°27'4 8.5
2017-Oct-15 08:30N 39°44' W 075°30'4 7.9
2017-Oct-15 08:00N 39°40' W 075°32'4 7.7
2017-Oct-15 07:31N 39°37' W 075°35'4 7.7
2017-Oct-15 07:00N 39°34' W 075°33'3 7.0
2017-Oct-15 06:30N 39°30' W 075°33'4 7.0
2017-Oct-15 06:00N 39°27' W 075°33'4 7.1
2017-Oct-15 05:31N 39°24' W 075°30'3 6.8
2017-Oct-15 05:00N 39°21' W 075°27'3 6.9
2017-Oct-15 04:30N 39°19' W 075°24'4 7.1
2017-Oct-15 04:00N 39°16' W 075°21'4 7.3
2017-Oct-15 03:31N 39°13' W 075°18'4 7.1
2017-Oct-15 03:00N 39°10' W 075°16'4 7.8
2017-Oct-15 02:30N 39°07' W 075°13'3 6.7
2017-Oct-15 02:00N 39°04' W 075°11'4 7.9
2017-Oct-15 01:30N 39°01' W 075°09'12 7.9
2017-Oct-14 23:56N 38°49' W 075°02'4 8.1
2017-Oct-14 23:28N 38°48' W 074°57'5 8.9
2017-Oct-14 22:56N 38°50' W 074°51'4 9.3
2017-Oct-14 22:29N 38°53' W 074°48'5 9.3
2017-Oct-14 21:58N 38°56' W 074°44'5 9.5
2017-Oct-14 21:30N 38°60' W 074°40'5 9.5
2017-Oct-14 20:58N 39°04' W 074°36'4 9.5
2017-Oct-14 20:30N 39°07' W 074°32'5 9.6
2017-Oct-14 20:00N 39°11' W 074°28'5 9.7
2017-Oct-14 19:28N 39°15' W 074°24'5 9.8
2017-Oct-14 19:00N 39°19' W 074°21'5 9.9
2017-Oct-14 18:27N 39°23' W 074°16'6 9.9
2017-Oct-14 17:53N 39°28' W 074°13'4 9.9
2017-Oct-14 17:27N 39°31' W 074°10'510.0
2017-Oct-14 17:00N 39°36' W 074°08'5 9.9
2017-Oct-14 16:30N 39°40' W 074°05'5 9.9
2017-Oct-14 16:00N 39°44' W 074°02'6 9.8
2017-Oct-14 15:25N 39°50' W 074°00'4 9.7
2017-Oct-14 14:58N 39°54' W 073°59'35 9.9
2017-Oct-14 11:27N 40°29' W 073°56'510.5
2017-Oct-14 10:57N 40°32' W 074°01'9 8.9
2017-Oct-14 10:00N 40°40' W 074°04'0 0.8
2017-Oct-14 09:30N 40°41' W 074°05'0 0.0
2017-Oct-14 09:00N 40°41' W 074°05'0 0.0
2017-Oct-14 08:30N 40°41' W 074°05'0 0.0
2017-Oct-14 08:00N 40°41' W 074°05'0 0.0
2017-Oct-14 07:30N 40°41' W 074°05'0 0.0
2017-Oct-14 07:00N 40°41' W 074°05'0 0.0
2017-Oct-14 06:30N 40°41' W 074°05'0 0.0
2017-Oct-14 06:00N 40°41' W 074°05'0 0.0
2017-Oct-14 05:30N 40°41' W 074°05'0 0.0
2017-Oct-14 05:00N 40°41' W 074°05'0 0.0
2017-Oct-14 04:30N 40°41' W 074°05'0 0.0
2017-Oct-14 04:00N 40°41' W 074°05'0 0.0
2017-Oct-14 03:30N 40°41' W 074°05'0 0.0
2017-Oct-14 03:00N 40°41' W 074°05'0 0.0
2017-Oct-14 02:30N 40°41' W 074°05'0 0.0
2017-Oct-14 02:00N 40°41' W 074°05'0 0.0
2017-Oct-14 01:30N 40°41' W 074°05'0 0.0
2017-Oct-14 01:00N 40°41' W 074°05'0 0.0
2017-Oct-14 00:30N 40°41' W 074°05'0 0.0
2017-Oct-14 00:00N 40°41' W 074°05'0 0.0
2017-Oct-13 23:30N 40°41' W 074°05'0 0.0
2017-Oct-13 23:00N 40°41' W 074°05'0 0.0
2017-Oct-13 22:30N 40°41' W 074°05'0 0.1
2017-Oct-13 22:00N 40°41' W 074°05'0 0.0
2017-Oct-13 21:30N 40°41' W 074°04'0 0.0
2017-Oct-13 21:00N 40°41' W 074°04'0 0.2
2017-Oct-13 20:30N 40°41' W 074°05'0 0.0
2017-Oct-13 20:00N 40°41' W 074°05'2 3.5
2017-Oct-13 19:29N 40°39' W 074°06'1 0.7
2017-Oct-13 18:22N 40°39' W 074°07'0 0.0
2017-Oct-13 17:49N 40°39' W 074°07'0 0.0
2017-Oct-13 17:22N 40°39' W 074°07'0 0.0
2017-Oct-13 16:49N 40°39' W 074°07'2 7.9
2017-Oct-13 16:30N 40°40' W 074°04'510.3
2017-Oct-13 16:00N 40°45' W 074°01'1 1.1
2017-Oct-13 15:30N 40°45' W 074°01'4 8.1
2017-Oct-13 15:00N 40°41' W 074°02'2 4.0
2017-Oct-13 14:30N 40°41' W 074°05'0 0.0
2017-Oct-13 14:00N 40°41' W 074°05'0 0.0
2017-Oct-13 13:30N 40°41' W 074°05'0 0.0
2017-Oct-13 13:00N 40°41' W 074°05'0 0.0
2017-Oct-13 12:30N 40°41' W 074°05'0 0.0
2017-Oct-13 12:00N 40°41' W 074°05'0 0.0
2017-Oct-13 11:30N 40°41' W 074°05'0 0.1
2017-Oct-13 11:00N 40°41' W 074°05'0 0.0
2017-Oct-13 10:30N 40°41' W 074°05'0 0.0
2017-Oct-13 10:00N 40°41' W 074°05'0 0.0
2017-Oct-13 09:30N 40°41' W 074°05'0 0.0
2017-Oct-13 09:00N 40°41' W 074°05'0 0.0
2017-Oct-13 08:30N 40°41' W 074°05'0 0.0
2017-Oct-13 08:00N 40°41' W 074°05'0 0.0
2017-Oct-13 07:30N 40°41' W 074°05'0 0.0
2017-Oct-13 07:00N 40°41' W 074°05'0 0.0
2017-Oct-13 06:30N 40°41' W 074°05'0 0.0
2017-Oct-13 06:00N 40°41' W 074°05'0 0.0
2017-Oct-13 05:30N 40°41' W 074°05'0 0.0
2017-Oct-13 05:00N 40°41' W 074°05'0 0.0
2017-Oct-13 04:30N 40°41' W 074°05'0 0.0
2017-Oct-13 04:00N 40°41' W 074°05'0 0.0
2017-Oct-13 03:30N 40°41' W 074°05'0 0.0
2017-Oct-13 03:00N 40°41' W 074°05'0 0.0
2017-Oct-13 02:30N 40°41' W 074°05'0 0.0
2017-Oct-13 02:00N 40°41' W 074°05'0 0.0
2017-Oct-13 01:30N 40°41' W 074°05'0 0.0
2017-Oct-13 01:00N 40°41' W 074°05'0 0.0
2017-Oct-13 00:30N 40°41' W 074°05'0 0.0
2017-Oct-13 00:00N 40°41' W 074°05'0 0.0
2017-Oct-12 23:30N 40°41' W 074°05'0 0.0
2017-Oct-12 23:00N 40°41' W 074°05'0 0.0
2017-Oct-12 22:30N 40°41' W 074°05'0 0.0
2017-Oct-12 22:00N 40°41' W 074°05'0 0.0
2017-Oct-12 21:30N 40°41' W 074°05'2 3.3
2017-Oct-12 21:00N 40°39' W 074°05'4 8.0
2017-Oct-12 20:30N 40°39' W 074°11'7 7.1
2017-Oct-12 19:33N 40°33' W 074°15'1 4.8
2017-Oct-12 19:25N 40°32' W 074°15'4 6.4
2017-Oct-12 18:44N 40°36' W 074°12'2 8.5
2017-Oct-12 18:30N 40°38' W 074°12'4 9.0
2017-Oct-12 18:00N 40°39' W 074°06'2 4.3
2017-Oct-12 17:30N 40°41' W 074°05'0 0.2
2017-Oct-12 17:00N 40°40' W 074°05'3 5.8
2017-Oct-12 16:29N 40°41' W 074°01'3 5.4
2017-Oct-12 16:00N 40°43' W 073°58'3 5.8
2017-Oct-12 15:24N 40°46' W 073°57'2 5.8
2017-Oct-12 15:00N 40°48' W 073°54'1 1.2
2017-Oct-12 14:26N 40°48' W 073°54'3 7.3
2017-Oct-12 14:00N 40°46' W 073°57'4 8.2
2017-Oct-12 13:30N 40°42' W 073°59'4 7.7
2017-Oct-12 13:00N 40°40' W 074°04'2 3.4
2017-Oct-12 12:30N 40°39' W 074°04'2 3.4
2017-Oct-12 12:00N 40°37' W 074°03'1 2.0
2017-Oct-12 11:30N 40°38' W 074°03'3 5.0
2017-Oct-12 11:00N 40°40' W 074°04'0 0.1
2017-Oct-12 10:30N 40°40' W 074°04'0 0.0
2017-Oct-12 10:00N 40°40' W 074°04'0 0.0
2017-Oct-12 09:30N 40°40' W 074°04'0 0.0
2017-Oct-12 09:00N 40°40' W 074°04'0 0.0
2017-Oct-12 08:30N 40°40' W 074°04'0 0.0
2017-Oct-12 08:00N 40°40' W 074°04'0 0.0
2017-Oct-12 07:30N 40°40' W 074°04'0 0.0
2017-Oct-12 07:00N 40°40' W 074°04'0 0.0
2017-Oct-12 06:30N 40°40' W 074°04'0 0.0
2017-Oct-12 06:00N 40°40' W 074°04'0 0.0
2017-Oct-12 05:30N 40°40' W 074°04'0 0.0
2017-Oct-12 05:00N 40°40' W 074°04'0 0.0
2017-Oct-12 04:30N 40°40' W 074°04'0 0.0
2017-Oct-12 04:00N 40°40' W 074°04'0 0.0
2017-Oct-12 03:30N 40°40' W 074°04'0 0.0
2017-Oct-12 03:00N 40°40' W 074°04'0 0.0
2017-Oct-12 02:30N 40°40' W 074°04'0 0.0
2017-Oct-12 02:00N 40°40' W 074°04'0 0.1
2017-Oct-12 01:30N 40°41' W 074°04'0 0.3
2017-Oct-12 01:00N 40°41' W 074°04'0 0.1
2017-Oct-12 00:30N 40°41' W 074°04'0 0.0
2017-Oct-12 00:00N 40°41' W 074°04'0 0.2
2017-Oct-11 23:30N 40°40' W 074°04'4 7.8
2017-Oct-11 23:01N 40°39' W 074°09'3 6.3
2017-Oct-11 22:30N 40°42' W 074°09'1 2.8
2017-Oct-11 22:00N 40°40' W 074°08'2 3.6
2017-Oct-11 21:30N 40°39' W 074°08'3 5.1
2017-Oct-11 21:00N 40°39' W 074°05'1 2.4
2017-Oct-11 20:29N 40°40' W 074°04'0 0.0
2017-Oct-11 20:00N 40°40' W 074°04'0 0.0
2017-Oct-11 19:30N 40°41' W 074°04'1 2.9
2017-Oct-11 19:00N 40°40' W 074°03'1 1.7
2017-Oct-11 18:30N 40°40' W 074°04'0 0.7
2017-Oct-11 18:01N 40°40' W 074°04'3 5.9
2017-Oct-11 17:30N 40°42' W 074°00'0 0.6
2017-Oct-11 17:00N 40°42' W 073°60'15 0.8
2017-Oct-10 23:52N 40°33' W 074°15'1 0.1
2017-Oct-10 12:20N 40°32' W 074°15'0 0.0
2017-Oct-10 12:00N 40°32' W 074°15'0 0.0
2017-Oct-10 11:30N 40°32' W 074°15'0 0.0
2017-Oct-10 10:45N 40°32' W 074°15'0 0.0
2017-Oct-10 10:17N 40°32' W 074°15'0 0.0
2017-Oct-10 09:52N 40°32' W 074°15'0 0.0
2017-Oct-10 09:22N 40°32' W 074°15'0 0.0
2017-Oct-10 08:58N 40°32' W 074°15'0 0.0
2017-Oct-10 08:23N 40°32' W 074°15'0 0.0
2017-Oct-10 07:58N 40°32' W 074°15'0 0.0
2017-Oct-10 07:22N 40°32' W 074°15'0 0.0
2017-Oct-10 06:57N 40°32' W 074°15'0 0.0
2017-Oct-09 12:48N 40°32' W 074°15'0 0.1
2017-Oct-09 12:02N 40°32' W 074°15'0 0.0
2017-Oct-09 11:50N 40°32' W 074°15'0 0.0
2017-Oct-09 11:28N 40°32' W 074°15'0 0.0
2017-Oct-09 11:00N 40°32' W 074°15'0 0.0
2017-Oct-09 10:30N 40°32' W 074°15'0 0.0
2017-Oct-09 10:00N 40°32' W 074°15'0 0.0
2017-Oct-09 09:30N 40°32' W 074°15'0 0.0
2017-Oct-09 09:00N 40°32' W 074°15'0 0.0
2017-Oct-09 02:38N 40°32' W 074°15'0 0.0
2017-Oct-09 02:20N 40°32' W 074°15'0 0.0
2017-Oct-09 01:58N 40°32' W 074°15'0 0.0
2017-Oct-09 01:30N 40°32' W 074°15'0 0.0
2017-Oct-09 00:57N 40°32' W 074°15'0 0.0
2017-Oct-09 00:29N 40°32' W 074°15'0 0.0
2017-Oct-08 21:33N 40°32' W 074°15'0 0.1
2017-Oct-08 21:22N 40°32' W 074°15'3 6.6
2017-Oct-08 20:51N 40°35' W 074°12'3 8.7
2017-Oct-08 20:30N 40°38' W 074°12'4 7.4
2017-Oct-08 20:00N 40°39' W 074°07'3 5.9
2017-Oct-08 19:30N 40°40' W 074°04'0 0.9
2017-Oct-08 19:00N 40°41' W 074°05'0 0.0
2017-Oct-08 18:30N 40°41' W 074°05'0 0.0
2017-Oct-08 18:00N 40°41' W 074°05'0 0.0
2017-Oct-08 17:30N 40°41' W 074°05'0 0.0
2017-Oct-08 17:00N 40°41' W 074°05'0 0.0
2017-Oct-08 16:30N 40°41' W 074°05'0 0.0
2017-Oct-08 16:00N 40°41' W 074°05'0 0.0
2017-Oct-08 15:30N 40°41' W 074°05'0 0.0
2017-Oct-08 15:00N 40°41' W 074°05'0 0.1
2017-Oct-08 14:30N 40°41' W 074°05'0 0.0
2017-Oct-08 14:00N 40°41' W 074°05'0 0.0
2017-Oct-08 13:30N 40°41' W 074°05'0 0.0
2017-Oct-08 13:00N 40°41' W 074°05'0 0.0
2017-Oct-08 12:30N 40°41' W 074°05'0 0.0
2017-Oct-08 12:00N 40°41' W 074°05'0 0.0
2017-Oct-08 11:30N 40°41' W 074°05'0 0.1
2017-Oct-08 11:00N 40°41' W 074°05'0 0.0
2017-Oct-08 10:30N 40°41' W 074°05'0 0.0
2017-Oct-08 10:00N 40°41' W 074°05'0 0.0
2017-Oct-08 09:30N 40°41' W 074°05'0 0.0
2017-Oct-08 09:00N 40°41' W 074°05'0 0.0
2017-Oct-08 08:30N 40°41' W 074°05'0 0.0
2017-Oct-08 08:00N 40°41' W 074°05'0 0.0
2017-Oct-08 07:30N 40°41' W 074°05'0 0.0
2017-Oct-08 07:00N 40°41' W 074°05'0 0.0
2017-Oct-08 06:30N 40°41' W 074°05'0 0.0
2017-Oct-08 06:00N 40°41' W 074°05'  
Track history (hours):
 
Tides and Currents Weather Stations Pressure Air Temp Water Temp Dewpoint Dewpoint Depression Visibility Wind Speed Wind Dir Waves Ship Positions

Shelby

Owner: WEEKS MARINE, INC., CRANFORD, NJ. More information available from US FCC via Universal Licensing System and Coast Guard Vessel Documentation Center.

Last reported at 2017-Oct-18 06:00 UTC. Time now 2017-Oct-18 06:04 UTC.
Position N 40°41' W 074°05'.

Length 22 m; draft 3.1 m.

Type: Tug. MMSI: 366902344.

Date/timePositionNaut miles runAvg speedWind from/ knotsBaromVisibWave heightAir tempDewpointWater temp
2017-Oct-18 06:00N 40°41' W 074°05'0 0.0
2017-Oct-18 05:30N 40°41' W 074°05'0 0.0
2017-Oct-18 05:00N 40°41' W 074°05'0 0.0
2017-Oct-18 04:30N 40°41' W 074°05'0 0.0
2017-Oct-18 04:00N 40°41' W 074°05'0 0.0
2017-Oct-18 03:30N 40°41' W 074°05'0 0.0
2017-Oct-18 03:00N 40°41' W 074°05'0 0.0
2017-Oct-18 02:30N 40°41' W 074°05'0 0.1
2017-Oct-18 02:00N 40°40' W 074°05'0 0.2
2017-Oct-18 01:30N 40°41' W 074°05'0 0.2
2017-Oct-18 01:01N 40°41' W 074°05'1 2.2
2017-Oct-18 00:31N 40°41' W 074°03'3 5.2
2017-Oct-18 00:00N 40°43' W 074°02'3 5.6
2017-Oct-17 23:30N 40°46' W 074°01'1 2.0
2017-Oct-17 23:00N 40°46' W 073°60'2 4.7
2017-Oct-17 22:30N 40°49' W 073°59'0 0.2
2017-Oct-17 22:00N 40°49' W 073°59'0 0.2
2017-Oct-17 21:30N 40°49' W 073°59'2 4.0
2017-Oct-17 21:00N 40°47' W 073°60'1 1.1
2017-Oct-17 20:30N 40°46' W 074°00'0 0.0
2017-Oct-17 20:00N 40°46' W 074°00'0 0.1
2017-Oct-17 19:30N 40°46' W 074°00'1 1.2
2017-Oct-17 19:00N 40°46' W 074°00'4 8.0
2017-Oct-17 18:30N 40°42' W 074°02'2 5.0
2017-Oct-17 18:00N 40°41' W 074°05'0 0.0
2017-Oct-17 17:30N 40°41' W 074°05'0 0.0
2017-Oct-17 17:00N 40°41' W 074°05'0 0.0
2017-Oct-17 16:30N 40°41' W 074°05'0 0.0
2017-Oct-17 16:00N 40°41' W 074°05'0 0.0
2017-Oct-17 15:30N 40°41' W 074°05'0 0.0
2017-Oct-17 15:00N 40°41' W 074°05'0 0.0
2017-Oct-17 14:30N 40°41' W 074°05'0 0.0
2017-Oct-17 14:00N 40°41' W 074°05'0 0.0
2017-Oct-17 13:30N 40°41' W 074°05'0 0.0
2017-Oct-17 13:00N 40°41' W 074°05'0 0.0
2017-Oct-17 12:30N 40°41' W 074°05'0 0.5
2017-Oct-17 12:01N 40°40' W 074°04'4 7.0
2017-Oct-17 11:30N 40°43' W 074°01'2 3.1
2017-Oct-17 11:00N 40°45' W 074°01'0 0.0
2017-Oct-17 10:30N 40°45' W 074°01'0 0.1
2017-Oct-17 10:00N 40°45' W 074°01'0 0.1
2017-Oct-17 09:30N 40°45' W 074°01'5 9.0
2017-Oct-17 09:00N 40°41' W 074°03'1 1.9
2017-Oct-17 08:30N 40°41' W 074°05'0 0.0
2017-Oct-17 08:00N 40°41' W 074°05'0 0.0
2017-Oct-17 07:30N 40°41' W 074°05'0 0.0
2017-Oct-17 07:00N 40°41' W 074°05'0 0.0
2017-Oct-17 06:30N 40°41' W 074°05'0 0.0
2017-Oct-17 06:00N 40°41' W 074°05'0 0.0
2017-Oct-17 05:30N 40°41' W 074°05'0 0.0
2017-Oct-17 05:00N 40°41' W 074°05'0 0.0
2017-Oct-17 04:30N 40°41' W 074°05'0 0.0
2017-Oct-17 04:00N 40°41' W 074°05'0 0.0
2017-Oct-17 03:30N 40°41' W 074°05'0 0.0
2017-Oct-17 03:00N 40°41' W 074°05'0 0.0
2017-Oct-17 02:30N 40°41' W 074°05'0 0.0
2017-Oct-17 02:00N 40°41' W 074°05'0 0.0
2017-Oct-17 01:30N 40°41' W 074°05'0 0.0
2017-Oct-17 01:00N 40°41' W 074°05'0 0.0
2017-Oct-17 00:30N 40°41' W 074°05'0 0.0
2017-Oct-17 00:00N 40°41' W 074°05'0 0.0
2017-Oct-16 23:30N 40°41' W 074°05'0 0.0
2017-Oct-16 23:00N 40°41' W 074°05'0 0.3
2017-Oct-16 22:31N 40°40' W 074°04'0 0.2
2017-Oct-16 22:00N 40°41' W 074°04'0 0.0
2017-Oct-16 21:30N 40°41' W 074°04'0 0.9
2017-Oct-16 21:01N 40°40' W 074°04'2 3.8
2017-Oct-16 20:30N 40°38' W 074°03'3 6.7
2017-Oct-16 20:00N 40°35' W 074°02'3 6.6
2017-Oct-16 19:30N 40°32' W 074°02'43 6.4
2017-Oct-16 12:45N 39°48' W 074°03'2 7.0
2017-Oct-16 12:30N 39°47' W 074°03'4 7.0
2017-Oct-16 12:00N 39°44' W 074°05'4 7.4
2017-Oct-16 11:30N 39°40' W 074°07'4 7.7
2017-Oct-16 11:00N 39°37' W 074°09'61 6.8
2017-Oct-16 02:01N 38°52' W 075°03'0 8.1
2017-Oct-16 01:59N 38°53' W 075°03'3 6.7
2017-Oct-16 01:30N 38°55' W 075°06'5 9.0
2017-Oct-16 01:00N 38°59' W 075°08'4 8.5
2017-Oct-16 00:30N 39°03' W 075°10'4 7.9
2017-Oct-16 00:00N 39°07' W 075°13'4 7.5
2017-Oct-15 23:30N 39°10' W 075°15'3 6.8
2017-Oct-15 23:00N 39°13' W 075°18'3 6.2
2017-Oct-15 22:30N 39°15' W 075°20'3 6.2
2017-Oct-15 22:00N 39°18' W 075°23'3 6.3
2017-Oct-15 21:30N 39°20' W 075°25'3 6.5
2017-Oct-15 21:00N 39°22' W 075°28'4 7.0
2017-Oct-15 20:30N 39°25' W 075°31'4 7.2
2017-Oct-15 20:00N 39°28' W 075°34'4 8.1
2017-Oct-15 19:30N 39°32' W 075°33'4 8.6
2017-Oct-15 19:00N 39°36' W 075°34'4 8.1
2017-Oct-15 18:30N 39°40' W 075°32'4 8.7
2017-Oct-15 18:01N 39°44' W 075°30'4 8.8
2017-Oct-15 17:30N 39°47' W 075°27'3 6.4
2017-Oct-15 17:01N 39°49' W 075°23'4 8.4
2017-Oct-15 16:30N 39°51' W 075°19'4 7.8
2017-Oct-15 16:01N 39°52' W 075°14'3 6.6
2017-Oct-15 15:30N 39°53' W 075°10'3 5.2
2017-Oct-15 15:01N 39°55' W 075°08'2 2.2
2017-Oct-15 14:01N 39°57' W 075°08'0 0.0
2017-Oct-15 13:31N 39°57' W 075°08'0 0.0
2017-Oct-15 13:01N 39°57' W 075°08'0 0.0
2017-Oct-15 12:31N 39°57' W 075°08'0 0.0
2017-Oct-15 12:01N 39°57' W 075°08'0 0.0
2017-Oct-15 11:31N 39°57' W 075°08'1 2.0
2017-Oct-15 11:00N 39°56' W 075°08'4 8.0
2017-Oct-15 10:31N 39°53' W 075°11'5 9.5
2017-Oct-15 10:01N 39°51' W 075°16'5 9.1
2017-Oct-15 09:31N 39°50' W 075°22'5 9.0
2017-Oct-15 09:00N 39°47' W 075°27'4 8.5
2017-Oct-15 08:30N 39°44' W 075°30'4 7.9
2017-Oct-15 08:00N 39°40' W 075°32'4 7.7
2017-Oct-15 07:31N 39°37' W 075°35'4 7.7
2017-Oct-15 07:00N 39°34' W 075°33'3 7.0
2017-Oct-15 06:30N 39°30' W 075°33'4 7.0
2017-Oct-15 06:00N 39°27' W 075°33'4 7.1
2017-Oct-15 05:31N 39°24' W 075°30'3 6.8
2017-Oct-15 05:00N 39°21' W 075°27'3 6.9
2017-Oct-15 04:30N 39°19' W 075°24'4 7.1
2017-Oct-15 04:00N 39°16' W 075°21'4 7.3
2017-Oct-15 03:31N 39°13' W 075°18'4 7.1
2017-Oct-15 03:00N 39°10' W 075°16'4 7.8
2017-Oct-15 02:30N 39°07' W 075°13'3 6.7
2017-Oct-15 02:00N 39°04' W 075°11'4 7.9
2017-Oct-15 01:30N 39°01' W 075°09'12 7.9
2017-Oct-14 23:56N 38°49' W 075°02'4 8.1
2017-Oct-14 23:28N 38°48' W 074°57'5 8.9
2017-Oct-14 22:56N 38°50' W 074°51'4 9.3
2017-Oct-14 22:29N 38°53' W 074°48'5 9.3
2017-Oct-14 21:58N 38°56' W 074°44'5 9.5
2017-Oct-14 21:30N 38°60' W 074°40'5 9.5
2017-Oct-14 20:58N 39°04' W 074°36'4 9.5
2017-Oct-14 20:30N 39°07' W 074°32'5 9.6
2017-Oct-14 20:00N 39°11' W 074°28'5 9.7
2017-Oct-14 19:28N 39°15' W 074°24'5 9.8
2017-Oct-14 19:00N 39°19' W 074°21'5 9.9
2017-Oct-14 18:27N 39°23' W 074°16'6 9.9
2017-Oct-14 17:53N 39°28' W 074°13'4 9.9
2017-Oct-14 17:27N 39°31' W 074°10'510.0
2017-Oct-14 17:00N 39°36' W 074°08'5 9.9
2017-Oct-14 16:30N 39°40' W 074°05'5 9.9
2017-Oct-14 16:00N 39°44' W 074°02'6 9.8
2017-Oct-14 15:25N 39°50' W 074°00'4 9.7
2017-Oct-14 14:58N 39°54' W 073°59'35 9.9
2017-Oct-14 11:27N 40°29' W 073°56'510.5
2017-Oct-14 10:57N 40°32' W 074°01'9 8.9
2017-Oct-14 10:00N 40°40' W 074°04'0 0.8
2017-Oct-14 09:30N 40°41' W 074°05'0 0.0
2017-Oct-14 09:00N 40°41' W 074°05'0 0.0
2017-Oct-14 08:30N 40°41' W 074°05'0 0.0
2017-Oct-14 08:00N 40°41' W 074°05'0 0.0
2017-Oct-14 07:30N 40°41' W 074°05'0 0.0
2017-Oct-14 07:00N 40°41' W 074°05'0 0.0
2017-Oct-14 06:30N 40°41' W 074°05'0 0.0
2017-Oct-14 06:00N 40°41' W 074°05'0 0.0
2017-Oct-14 05:30N 40°41' W 074°05'0 0.0
2017-Oct-14 05:00N 40°41' W 074°05'0 0.0
2017-Oct-14 04:30N 40°41' W 074°05'0 0.0
2017-Oct-14 04:00N 40°41' W 074°05'0 0.0
2017-Oct-14 03:30N 40°41' W 074°05'0 0.0
2017-Oct-14 03:00N 40°41' W 074°05'0 0.0
2017-Oct-14 02:30N 40°41' W 074°05'0 0.0
2017-Oct-14 02:00N 40°41' W 074°05'0 0.0
2017-Oct-14 01:30N 40°41' W 074°05'0 0.0
2017-Oct-14 01:00N 40°41' W 074°05'0 0.0
2017-Oct-14 00:30N 40°41' W 074°05'0 0.0
2017-Oct-14 00:00N 40°41' W 074°05'0 0.0
2017-Oct-13 23:30N 40°41' W 074°05'0 0.0
2017-Oct-13 23:00N 40°41' W 074°05'0 0.0
2017-Oct-13 22:30N 40°41' W 074°05'0 0.1
2017-Oct-13 22:00N 40°41' W 074°05'0 0.0
2017-Oct-13 21:30N 40°41' W 074°04'0 0.0
2017-Oct-13 21:00N 40°41' W 074°04'0 0.2
2017-Oct-13 20:30N 40°41' W 074°05'0 0.0
2017-Oct-13 20:00N 40°41' W 074°05'2 3.5
2017-Oct-13 19:29N 40°39' W 074°06'1 0.7
2017-Oct-13 18:22N 40°39' W 074°07'0 0.0
2017-Oct-13 17:49N 40°39' W 074°07'0 0.0
2017-Oct-13 17:22N 40°39' W 074°07'0 0.0
2017-Oct-13 16:49N 40°39' W 074°07'2 7.9
2017-Oct-13 16:30N 40°40' W 074°04'510.3
2017-Oct-13 16:00N 40°45' W 074°01'1 1.1
2017-Oct-13 15:30N 40°45' W 074°01'4 8.1
2017-Oct-13 15:00N 40°41' W 074°02'2 4.0
2017-Oct-13 14:30N 40°41' W 074°05'0 0.0
2017-Oct-13 14:00N 40°41' W 074°05'0 0.0
2017-Oct-13 13:30N 40°41' W 074°05'0 0.0
2017-Oct-13 13:00N 40°41' W 074°05'0 0.0
2017-Oct-13 12:30N 40°41' W 074°05'0 0.0
2017-Oct-13 12:00N 40°41' W 074°05'0 0.0
2017-Oct-13 11:30N 40°41' W 074°05'0 0.1
2017-Oct-13 11:00N 40°41' W 074°05'0 0.0
2017-Oct-13 10:30N 40°41' W 074°05'0 0.0
2017-Oct-13 10:00N 40°41' W 074°05'0 0.0
2017-Oct-13 09:30N 40°41' W 074°05'0 0.0
2017-Oct-13 09:00N 40°41' W 074°05'0 0.0
2017-Oct-13 08:30N 40°41' W 074°05'0 0.0
2017-Oct-13 08:00N 40°41' W 074°05'0 0.0
2017-Oct-13 07:30N 40°41' W 074°05'0 0.0
2017-Oct-13 07:00N 40°41' W 074°05'0 0.0
2017-Oct-13 06:30N 40°41' W 074°05'0 0.0
2017-Oct-13 06:00N 40°41' W 074°05'0 0.0
2017-Oct-13 05:30N 40°41' W 074°05'0 0.0
2017-Oct-13 05:00N 40°41' W 074°05'0 0.0
2017-Oct-13 04:30N 40°41' W 074°05'0 0.0
2017-Oct-13 04:00N 40°41' W 074°05'0 0.0
2017-Oct-13 03:30N 40°41' W 074°05'0 0.0
2017-Oct-13 03:00N 40°41' W 074°05'0 0.0
2017-Oct-13 02:30N 40°41' W 074°05'0 0.0
2017-Oct-13 02:00N 40°41' W 074°05'0 0.0
2017-Oct-13 01:30N 40°41' W 074°05'0 0.0
2017-Oct-13 01:00N 40°41' W 074°05'0 0.0
2017-Oct-13 00:30N 40°41' W 074°05'0 0.0
2017-Oct-13 00:00N 40°41' W 074°05'0 0.0
2017-Oct-12 23:30N 40°41' W 074°05'0 0.0
2017-Oct-12 23:00N 40°41' W 074°05'0 0.0
2017-Oct-12 22:30N 40°41' W 074°05'0 0.0
2017-Oct-12 22:00N 40°41' W 074°05'0 0.0
2017-Oct-12 21:30N 40°41' W 074°05'2 3.3
2017-Oct-12 21:00N 40°39' W 074°05'4 8.0
2017-Oct-12 20:30N 40°39' W 074°11'7 7.1
2017-Oct-12 19:33N 40°33' W 074°15'1 4.8
2017-Oct-12 19:25N 40°32' W 074°15'4 6.4
2017-Oct-12 18:44N 40°36' W 074°12'2 8.5
2017-Oct-12 18:30N 40°38' W 074°12'4 9.0
2017-Oct-12 18:00N 40°39' W 074°06'2 4.3
2017-Oct-12 17:30N 40°41' W 074°05'0 0.2
2017-Oct-12 17:00N 40°40' W 074°05'3 5.8
2017-Oct-12 16:29N 40°41' W 074°01'3 5.4
2017-Oct-12 16:00N 40°43' W 073°58'3 5.8
2017-Oct-12 15:24N 40°46' W 073°57'2 5.8
2017-Oct-12 15:00N 40°48' W 073°54'1 1.2
2017-Oct-12 14:26N 40°48' W 073°54'3 7.3
2017-Oct-12 14:00N 40°46' W 073°57'4 8.2
2017-Oct-12 13:30N 40°42' W 073°59'4 7.7
2017-Oct-12 13:00N 40°40' W 074°04'2 3.4
2017-Oct-12 12:30N 40°39' W 074°04'2 3.4
2017-Oct-12 12:00N 40°37' W 074°03'1 2.0
2017-Oct-12 11:30N 40°38' W 074°03'3 5.0
2017-Oct-12 11:00N 40°40' W 074°04'0 0.1
2017-Oct-12 10:30N 40°40' W 074°04'0 0.0
2017-Oct-12 10:00N 40°40' W 074°04'0 0.0
2017-Oct-12 09:30N 40°40' W 074°04'0 0.0
2017-Oct-12 09:00N 40°40' W 074°04'0 0.0
2017-Oct-12 08:30N 40°40' W 074°04'0 0.0
2017-Oct-12 08:00N 40°40' W 074°04'0 0.0
2017-Oct-12 07:30N 40°40' W 074°04'0 0.0
2017-Oct-12 07:00N 40°40' W 074°04'0 0.0
2017-Oct-12 06:30N 40°40' W 074°04'0 0.0
2017-Oct-12 06:00N 40°40' W 074°04'0 0.0
2017-Oct-12 05:30N 40°40' W 074°04'0 0.0
2017-Oct-12 05:00N 40°40' W 074°04'0 0.0
2017-Oct-12 04:30N 40°40' W 074°04'0 0.0
2017-Oct-12 04:00N 40°40' W 074°04'0 0.0
2017-Oct-12 03:30N 40°40' W 074°04'0 0.0
2017-Oct-12 03:00N 40°40' W 074°04'0 0.0
2017-Oct-12 02:30N 40°40' W 074°04'0 0.0
2017-Oct-12 02:00N 40°40' W 074°04'0 0.1
2017-Oct-12 01:30N 40°41' W 074°04'0 0.3
2017-Oct-12 01:00N 40°41' W 074°04'0 0.1
2017-Oct-12 00:30N 40°41' W 074°04'0 0.0
2017-Oct-12 00:00N 40°41' W 074°04'0 0.2
2017-Oct-11 23:30N 40°40' W 074°04'4 7.8
2017-Oct-11 23:01N 40°39' W 074°09'3 6.3
2017-Oct-11 22:30N 40°42' W 074°09'1 2.8
2017-Oct-11 22:00N 40°40' W 074°08'2 3.6
2017-Oct-11 21:30N 40°39' W 074°08'3 5.1
2017-Oct-11 21:00N 40°39' W 074°05'1 2.4
2017-Oct-11 20:29N 40°40' W 074°04'0 0.0
2017-Oct-11 20:00N 40°40' W 074°04'0 0.0
2017-Oct-11 19:30N 40°41' W 074°04'1 2.9
2017-Oct-11 19:00N 40°40' W 074°03'1 1.7
2017-Oct-11 18:30N 40°40' W 074°04'0 0.7
2017-Oct-11 18:01N 40°40' W 074°04'3 5.9
2017-Oct-11 17:30N 40°42' W 074°00'0 0.6
2017-Oct-11 17:00N 40°42' W 073°60'15 0.8
2017-Oct-10 23:52N 40°33' W 074°15'1 0.1
2017-Oct-10 12:20N 40°32' W 074°15'0 0.0
2017-Oct-10 12:00N 40°32' W 074°15'0 0.0
2017-Oct-10 11:30N 40°32' W 074°15'0 0.0
2017-Oct-10 10:45N 40°32' W 074°15'0 0.0
2017-Oct-10 10:17N 40°32' W 074°15'0 0.0
2017-Oct-10 09:52N 40°32' W 074°15'0 0.0
2017-Oct-10 09:22N 40°32' W 074°15'0 0.0
2017-Oct-10 08:58N 40°32' W 074°15'0 0.0
2017-Oct-10 08:23N 40°32' W 074°15'0 0.0
2017-Oct-10 07:58N 40°32' W 074°15'0 0.0
2017-Oct-10 07:22N 40°32' W 074°15'0 0.0
2017-Oct-10 06:57N 40°32' W 074°15'0 0.0
2017-Oct-09 12:48N 40°32' W 074°15'0 0.1
2017-Oct-09 12:02N 40°32' W 074°15'0 0.0
2017-Oct-09 11:50N 40°32' W 074°15'0 0.0
2017-Oct-09 11:28N 40°32' W 074°15'0 0.0
2017-Oct-09 11:00N 40°32' W 074°15'0 0.0
2017-Oct-09 10:30N 40°32' W 074°15'0 0.0
2017-Oct-09 10:00N 40°32' W 074°15'0 0.0
2017-Oct-09 09:30N 40°32' W 074°15'0 0.0
2017-Oct-09 09:00N 40°32' W 074°15'0 0.0
2017-Oct-09 02:38N 40°32' W 074°15'0 0.0
2017-Oct-09 02:20N 40°32' W 074°15'0 0.0
2017-Oct-09 01:58N 40°32' W 074°15'0 0.0
2017-Oct-09 01:30N 40°32' W 074°15'0 0.0
2017-Oct-09 00:57N 40°32' W 074°15'0 0.0
2017-Oct-09 00:29N 40°32' W 074°15'0 0.0
2017-Oct-08 21:33N 40°32' W 074°15'0 0.1
2017-Oct-08 21:22N 40°32' W 074°15'3 6.6
2017-Oct-08 20:51N 40°35' W 074°12'3 8.7
2017-Oct-08 20:30N 40°38' W 074°12'4 7.4
2017-Oct-08 20:00N 40°39' W 074°07'3 5.9
2017-Oct-08 19:30N 40°40' W 074°04'0 0.9
2017-Oct-08 19:00N 40°41' W 074°05'0 0.0
2017-Oct-08 18:30N 40°41' W 074°05'0 0.0
2017-Oct-08 18:00N 40°41' W 074°05'0 0.0
2017-Oct-08 17:30N 40°41' W 074°05'0 0.0
2017-Oct-08 17:00N 40°41' W 074°05'0 0.0
2017-Oct-08 16:30N 40°41' W 074°05'0 0.0
2017-Oct-08 16:00N 40°41' W 074°05'0 0.0
2017-Oct-08 15:30N 40°41' W 074°05'0 0.0
2017-Oct-08 15:00N 40°41' W 074°05'0 0.1
2017-Oct-08 14:30N 40°41' W 074°05'0 0.0
2017-Oct-08 14:00N 40°41' W 074°05'0 0.0
2017-Oct-08 13:30N 40°41' W 074°05'0 0.0
2017-Oct-08 13:00N 40°41' W 074°05'0 0.0
2017-Oct-08 12:30N 40°41' W 074°05'0 0.0
2017-Oct-08 12:00N 40°41' W 074°05'0 0.0
2017-Oct-08 11:30N 40°41' W 074°05'0 0.1
2017-Oct-08 11:00N 40°41' W 074°05'0 0.0
2017-Oct-08 10:30N 40°41' W 074°05'0 0.0
2017-Oct-08 10:00N 40°41' W 074°05'0 0.0
2017-Oct-08 09:30N 40°41' W 074°05'0 0.0
2017-Oct-08 09:00N 40°41' W 074°05'0 0.0
2017-Oct-08 08:30N 40°41' W 074°05'0 0.0
2017-Oct-08 08:00N 40°41' W 074°05'0 0.0
2017-Oct-08 07:30N 40°41' W 074°05'0 0.0
2017-Oct-08 07:00N 40°41' W 074°05'0 0.0
2017-Oct-08 06:30N 40°41' W 074°05'0 0.0
2017-Oct-08 06:00N 40°41' W 074°05'  

Dump ship's entire track history